sensor_id;sensor_type;location;lat;lon;timestamp;pressure;altitude;pressure_sealevel;temperature;humidity
54248;BME280;40161;39.768;2.722;2023-05-11T00:01:31;101453.69;;;17.91;69.10
54248;BME280;40161;39.768;2.722;2023-05-11T00:03:56;101451.31;;;17.86;69.62
54248;BME280;40161;39.768;2.722;2023-05-11T00:06:22;101446.16;;;17.95;69.09
54248;BME280;40161;39.768;2.722;2023-05-11T00:08:48;101434.25;;;17.94;69.17
54248;BME280;40161;39.768;2.722;2023-05-11T00:11:13;101467.97;;;17.86;70.19
54248;BME280;40161;39.768;2.722;2023-05-11T00:13:39;101452.13;;;17.83;69.91
54248;BME280;40161;39.768;2.722;2023-05-11T00:16:04;101454.09;;;17.89;68.73
54248;BME280;40161;39.768;2.722;2023-05-11T00:18:30;101446.53;;;17.65;70.06
54248;BME280;40161;39.768;2.722;2023-05-11T00:20:56;101455.28;;;17.70;69.89
54248;BME280;40161;39.768;2.722;2023-05-11T00:23:21;101448.94;;;17.81;69.12
54248;BME280;40161;39.768;2.722;2023-05-11T00:25:47;101418.00;;;17.68;66.47
54248;BME280;40161;39.768;2.722;2023-05-11T00:28:13;101456.84;;;17.89;64.14
54248;BME280;40161;39.768;2.722;2023-05-11T00:30:39;101418.00;;;17.68;63.19
54248;BME280;40161;39.768;2.722;2023-05-11T00:33:05;101461.59;;;17.99;63.45
54248;BME280;40161;39.768;2.722;2023-05-11T00:35:31;101463.59;;;18.02;61.82
54248;BME280;40161;39.768;2.722;2023-05-11T00:37:57;101403.72;;;17.69;61.93
54248;BME280;40161;39.768;2.722;2023-05-11T00:40:24;101464.78;;;18.09;60.71
54248;BME280;40161;39.768;2.722;2023-05-11T00:42:49;101462.00;;;18.01;61.75
54248;BME280;40161;39.768;2.722;2023-05-11T00:45:15;101436.63;;;18.07;62.34
54248;BME280;40161;39.768;2.722;2023-05-11T00:47:40;101453.28;;;18.07;63.24
54248;BME280;40161;39.768;2.722;2023-05-11T00:50:07;101443.38;;;17.95;65.02
54248;BME280;40161;39.768;2.722;2023-05-11T00:52:33;101445.38;;;17.87;63.89
54248;BME280;40161;39.768;2.722;2023-05-11T00:54:59;101449.72;;;17.70;62.71
54248;BME280;40161;39.768;2.722;2023-05-11T00:57:25;101454.06;;;17.57;62.75
54248;BME280;40161;39.768;2.722;2023-05-11T00:59:50;101455.66;;;17.62;61.82
54248;BME280;40161;39.768;2.722;2023-05-11T01:02:16;101434.66;;;17.32;62.66
54248;BME280;40161;39.768;2.722;2023-05-11T01:04:43;101436.66;;;17.56;60.90
54248;BME280;40161;39.768;2.722;2023-05-11T01:07:13;101445.38;;;17.55;59.93
54248;BME280;40161;39.768;2.722;2023-05-11T01:10:06;101426.34;;;17.46;61.75
54248;BME280;40161;39.768;2.722;2023-05-11T01:12:47;101441.78;;;17.40;61.94
54248;BME280;40161;39.768;2.722;2023-05-11T01:15:25;101436.66;;;17.42;61.84
54248;BME280;40161;39.768;2.722;2023-05-11T01:20:26;101433.44;;;17.12;62.43
54248;BME280;40161;39.768;2.722;2023-05-11T01:31:22;101405.69;;;17.04;60.98
54248;BME280;40161;39.768;2.722;2023-05-11T01:33:54;101408.81;;;16.78;62.03
54248;BME280;40161;39.768;2.722;2023-05-11T01:36:25;101412.41;;;16.96;61.70
54248;BME280;40161;39.768;2.722;2023-05-11T01:38:53;101405.69;;;16.97;64.79
54248;BME280;40161;39.768;2.722;2023-05-11T01:41:19;101391.06;;;17.04;65.17
54248;BME280;40161;39.768;2.722;2023-05-11T01:43:53;101396.97;;;17.13;65.21
54248;BME280;40161;39.768;2.722;2023-05-11T01:46:22;101400.97;;;17.26;63.38
54248;BME280;40161;39.768;2.722;2023-05-11T01:48:50;101395.41;;;17.05;63.88
54248;BME280;40161;39.768;2.722;2023-05-11T01:51:18;101392.25;;;17.14;64.81
54248;BME280;40161;39.768;2.722;2023-05-11T01:53:45;101389.06;;;17.33;68.30
54248;BME280;40161;39.768;2.722;2023-05-11T01:56:11;101395.81;;;17.32;64.24
54248;BME280;40161;39.768;2.722;2023-05-11T01:58:39;101346.69;;;16.93;63.63
54248;BME280;40161;39.768;2.722;2023-05-11T02:01:08;101381.91;;;16.89;63.25
54248;BME280;40161;39.768;2.722;2023-05-11T02:03:35;101388.13;;;16.57;63.76
54248;BME280;40161;39.768;2.722;2023-05-11T02:06:04;101390.19;;;16.78;63.75
54248;BME280;40161;39.768;2.722;2023-05-11T02:08:31;101369.16;;;16.70;62.96
54248;BME280;40161;39.768;2.722;2023-05-11T02:10:58;101393.38;;;16.80;63.01
54248;BME280;40161;39.768;2.722;2023-05-11T02:13:26;101353.75;;;16.69;63.71
54248;BME280;40161;39.768;2.722;2023-05-11T02:15:55;101404.09;;;16.96;65.13
54248;BME280;40161;39.768;2.722;2023-05-11T02:18:21;101392.22;;;17.06;65.74
54248;BME280;40161;39.768;2.722;2023-05-11T02:20:47;101401.72;;;16.91;63.97
54248;BME280;40161;39.768;2.722;2023-05-11T02:23:14;101397.34;;;16.87;62.44
54248;BME280;40161;39.768;2.722;2023-05-11T02:25:41;101389.44;;;16.96;63.71
54248;BME280;40161;39.768;2.722;2023-05-11T02:28:07;101389.03;;;16.87;62.30
54248;BME280;40161;39.768;2.722;2023-05-11T02:30:39;101368.03;;;16.85;62.53
54248;BME280;40161;39.768;2.722;2023-05-11T02:33:05;101385.50;;;16.90;62.28
54248;BME280;40161;39.768;2.722;2023-05-11T02:35:39;101386.63;;;16.78;62.15
54248;BME280;40161;39.768;2.722;2023-05-11T02:38:08;101381.50;;;16.87;64.94
54248;BME280;40161;39.768;2.722;2023-05-11T02:40:46;101370.03;;;17.06;65.24
54248;BME280;40161;39.768;2.722;2023-05-11T02:43:14;101379.97;;;17.07;64.62
54248;BME280;40161;39.768;2.722;2023-05-11T02:45:45;101366.88;;;17.08;65.01
54248;BME280;40161;39.768;2.722;2023-05-11T02:48:20;101352.22;;;17.11;65.49
54248;BME280;40161;39.768;2.722;2023-05-11T02:50:47;101356.16;;;17.10;65.23
54248;BME280;40161;39.768;2.722;2023-05-11T02:53:16;101366.47;;;17.09;60.71
54248;BME280;40161;39.768;2.722;2023-05-11T02:55:43;101367.25;;;17.03;60.63
54248;BME280;40161;39.768;2.722;2023-05-11T02:58:09;101352.22;;;17.11;62.53
54248;BME280;40161;39.768;2.722;2023-05-11T03:00:35;101318.13;;;16.89;60.17
54248;BME280;40161;39.768;2.722;2023-05-11T03:03:02;101376.00;;;17.23;60.27
54248;BME280;40161;39.768;2.722;2023-05-11T03:05:28;101358.16;;;17.24;62.13
54248;BME280;40161;39.768;2.722;2023-05-11T03:07:57;101329.25;;;17.03;59.56
54248;BME280;40161;39.768;2.722;2023-05-11T03:10:25;101371.22;;;17.30;59.73
54248;BME280;40161;39.768;2.722;2023-05-11T03:12:51;101370.84;;;17.21;60.14
54248;BME280;40161;39.768;2.722;2023-05-11T03:15:18;101375.22;;;17.26;59.87
54248;BME280;40161;39.768;2.722;2023-05-11T03:17:45;101362.53;;;17.25;58.65
54248;BME280;40161;39.768;2.722;2023-05-11T03:20:10;101364.53;;;17.24;59.74
54248;BME280;40161;39.768;2.722;2023-05-11T03:22:37;101377.97;;;17.15;60.01
54248;BME280;40161;39.768;2.722;2023-05-11T03:25:04;101358.16;;;16.99;61.00
54248;BME280;40161;39.768;2.722;2023-05-11T03:27:32;101364.13;;;17.12;61.30
54248;BME280;40161;39.768;2.722;2023-05-11T03:29:59;101355.38;;;17.09;60.66
54248;BME280;40161;39.768;2.722;2023-05-11T03:32:27;101349.03;;;16.91;60.82
54248;BME280;40161;39.768;2.722;2023-05-11T03:34:53;101359.34;;;17.05;60.01
54248;BME280;40161;39.768;2.722;2023-05-11T03:37:19;101358.56;;;16.94;61.42
54248;BME280;40161;39.768;2.722;2023-05-11T03:39:47;101342.72;;;17.05;62.37
54248;BME280;40161;39.768;2.722;2023-05-11T03:42:16;101359.34;;;16.98;61.32
54248;BME280;40161;39.768;2.722;2023-05-11T03:44:45;101349.47;;;17.00;60.89
54248;BME280;40161;39.768;2.722;2023-05-11T03:47:12;101349.84;;;17.02;60.80
54248;BME280;40161;39.768;2.722;2023-05-11T03:49:40;101347.47;;;17.04;63.11
54248;BME280;40161;39.768;2.722;2023-05-11T03:52:06;101361.72;;;17.10;62.28
54248;BME280;40161;39.768;2.722;2023-05-11T03:54:32;101353.03;;;17.12;60.66
54248;BME280;40161;39.768;2.722;2023-05-11T03:56:58;101358.16;;;17.06;60.25
54248;BME280;40161;39.768;2.722;2023-05-11T03:59:24;101353.41;;;17.06;59.00
54248;BME280;40161;39.768;2.722;2023-05-11T04:01:51;101312.59;;;16.82;58.46
54248;BME280;40161;39.768;2.722;2023-05-11T04:04:19;101341.94;;;17.08;58.03
54248;BME280;40161;39.768;2.722;2023-05-11T04:06:44;101357.00;;;17.14;57.57
54248;BME280;40161;39.768;2.722;2023-05-11T04:09:10;101358.97;;;17.14;58.45
54248;BME280;40161;39.768;2.722;2023-05-11T04:11:37;101349.03;;;17.23;58.47
54248;BME280;40161;39.768;2.722;2023-05-11T04:14:03;101354.59;;;17.27;59.12
54248;BME280;40161;39.768;2.722;2023-05-11T04:16:29;101341.13;;;17.22;59.01
54248;BME280;40161;39.768;2.722;2023-05-11T04:18:54;101308.66;;;17.01;59.28
54248;BME280;40161;39.768;2.722;2023-05-11T04:21:20;101347.88;;;17.14;59.98
54248;BME280;40161;39.768;2.722;2023-05-11T04:23:46;101320.53;;;16.94;60.43
54248;BME280;40161;39.768;2.722;2023-05-11T04:26:12;101343.91;;;17.18;60.16
54248;BME280;40161;39.768;2.722;2023-05-11T04:28:37;101354.22;;;17.28;59.90
54248;BME280;40161;39.768;2.722;2023-05-11T04:31:03;101310.22;;;17.09;60.15
54248;BME280;40161;39.768;2.722;2023-05-11T04:33:28;101344.69;;;17.29;59.96
54248;BME280;40161;39.768;2.722;2023-05-11T04:35:54;101352.22;;;17.36;59.53
54248;BME280;40161;39.768;2.722;2023-05-11T04:38:20;101351.44;;;17.21;60.51
54248;BME280;40161;39.768;2.722;2023-05-11T04:40:46;101354.22;;;17.18;61.11
54248;BME280;40161;39.768;2.722;2023-05-11T04:43:16;101339.94;;;17.19;60.95
54248;BME280;40161;39.768;2.722;2023-05-11T04:45:46;101359.34;;;17.37;60.98
54248;BME280;40161;39.768;2.722;2023-05-11T04:48:12;101353.41;;;17.39;60.58
54248;BME280;40161;39.768;2.722;2023-05-11T04:50:38;101353.00;;;17.44;62.65
54248;BME280;40161;39.768;2.722;2023-05-11T04:53:03;101342.31;;;17.39;64.30
54248;BME280;40161;39.768;2.722;2023-05-11T04:55:29;101347.44;;;17.51;65.31
54248;BME280;40161;39.768;2.722;2023-05-11T04:57:54;101361.31;;;17.58;66.58
54248;BME280;40161;39.768;2.722;2023-05-11T05:00:20;101350.22;;;17.40;68.57
54248;BME280;40161;39.768;2.722;2023-05-11T05:02:46;101301.13;;;17.08;68.93
54248;BME280;40161;39.768;2.722;2023-05-11T05:05:11;101350.66;;;17.24;70.67
54248;BME280;40161;39.768;2.722;2023-05-11T05:07:37;101367.28;;;17.28;72.25
54248;BME280;40161;39.768;2.722;2023-05-11T05:10:03;101301.88;;;16.59;72.88
54248;BME280;40161;39.768;2.722;2023-05-11T05:12:34;101383.09;;;16.95;73.85
54248;BME280;40161;39.768;2.722;2023-05-11T05:14:59;101379.97;;;17.15;74.98
54248;BME280;40161;39.768;2.722;2023-05-11T05:17:25;101377.16;;;16.90;74.29
54248;BME280;40161;39.768;2.722;2023-05-11T05:19:50;101382.25;;;16.73;75.29
54248;BME280;40161;39.768;2.722;2023-05-11T05:22:16;101382.31;;;16.95;74.98
54248;BME280;40161;39.768;2.722;2023-05-11T05:24:41;101394.19;;;16.99;74.29
54248;BME280;40161;39.768;2.722;2023-05-11T05:27:07;101381.94;;;17.03;74.28
54248;BME280;40161;39.768;2.722;2023-05-11T05:29:32;101390.28;;;17.11;76.41
54248;BME280;40161;39.768;2.722;2023-05-11T05:31:58;101343.50;;;16.80;75.97
54248;BME280;40161;39.768;2.722;2023-05-11T05:34:24;101388.66;;;17.09;75.54
54248;BME280;40161;39.768;2.722;2023-05-11T05:36:50;101386.69;;;17.10;76.15
54248;BME280;40161;39.768;2.722;2023-05-11T05:39:15;101389.47;;;17.17;74.34
54248;BME280;40161;39.768;2.722;2023-05-11T05:41:41;101387.50;;;17.18;75.49
54248;BME280;40161;39.768;2.722;2023-05-11T05:44:07;101386.31;;;17.26;75.08
54248;BME280;40161;39.768;2.722;2023-05-11T05:46:32;101387.09;;;17.19;76.15
54248;BME280;40161;39.768;2.722;2023-05-11T05:48:58;101394.63;;;17.26;77.40
54248;BME280;40161;39.768;2.722;2023-05-11T05:51:23;101401.75;;;17.30;76.93
54248;BME280;40161;39.768;2.722;2023-05-11T05:53:49;101409.69;;;17.28;75.74
54248;BME280;40161;39.768;2.722;2023-05-11T05:56:14;101406.13;;;17.28;75.78
54248;BME280;40161;39.768;2.722;2023-05-11T05:58:40;101389.88;;;17.19;75.30
54248;BME280;40161;39.768;2.722;2023-05-11T06:01:07;101401.38;;;17.28;74.39
54248;BME280;40161;39.768;2.722;2023-05-11T06:03:33;101407.72;;;17.36;74.86
54248;BME280;40161;39.768;2.722;2023-05-11T06:05:58;101397.41;;;17.33;74.64
54248;BME280;40161;39.768;2.722;2023-05-11T06:08:27;101412.88;;;17.45;74.22
54248;BME280;40161;39.768;2.722;2023-05-11T06:10:52;101364.91;;;17.08;74.16
54248;BME280;40161;39.768;2.722;2023-05-11T06:13:18;101409.69;;;17.39;76.04
54248;BME280;40161;39.768;2.722;2023-05-11T06:15:43;101418.00;;;17.39;76.45
54248;BME280;40161;39.768;2.722;2023-05-11T06:18:09;101412.47;;;17.39;76.67
54248;BME280;40161;39.768;2.722;2023-05-11T06:20:35;101418.00;;;17.53;75.73
54248;BME280;40161;39.768;2.722;2023-05-11T06:23:00;101416.81;;;17.65;74.62
54248;BME280;40161;39.768;2.722;2023-05-11T06:25:26;101366.50;;;17.38;75.98
54248;BME280;40161;39.768;2.722;2023-05-11T06:27:52;101414.44;;;17.60;75.69
54248;BME280;40161;39.768;2.722;2023-05-11T06:30:18;101409.69;;;17.61;76.50
54248;BME280;40161;39.768;2.722;2023-05-11T06:32:43;101400.16;;;17.69;77.64
54248;BME280;40161;39.768;2.722;2023-05-11T06:35:09;101400.19;;;17.76;76.45
54248;BME280;40161;39.768;2.722;2023-05-11T06:37:34;101406.53;;;17.76;76.87
54248;BME280;40161;39.768;2.722;2023-05-11T06:40:00;101411.66;;;17.67;76.44
54248;BME280;40161;39.768;2.722;2023-05-11T06:42:26;101362.53;;;17.43;76.82
54248;BME280;40161;39.768;2.722;2023-05-11T06:44:51;101414.03;;;17.69;76.92
54248;BME280;40161;39.768;2.722;2023-05-11T06:47:17;101415.22;;;17.78;77.42
54248;BME280;40161;39.768;2.722;2023-05-11T06:49:43;101345.88;;;17.32;76.91
54248;BME280;40161;39.768;2.722;2023-05-11T06:52:09;101413.28;;;17.79;75.79
54248;BME280;40161;39.768;2.722;2023-05-11T06:54:34;101408.09;;;17.70;73.23
54248;BME280;40161;39.768;2.722;2023-05-11T06:57:00;101416.81;;;17.87;72.46
54248;BME280;40161;39.768;2.722;2023-05-11T06:59:28;101419.19;;;17.92;71.95
54248;BME280;40161;39.768;2.722;2023-05-11T07:01:54;101422.34;;;17.97;70.46
54248;BME280;40161;39.768;2.722;2023-05-11T07:04:19;101425.94;;;17.94;68.30
54248;BME280;40161;39.768;2.722;2023-05-11T07:06:45;101417.59;;;17.94;67.64
54248;BME280;40161;39.768;2.722;2023-05-11T07:09:10;101377.13;;;17.72;66.51
54248;BME280;40161;39.768;2.722;2023-05-11T07:11:36;101388.66;;;17.74;64.71
54248;BME280;40161;39.768;2.722;2023-05-11T07:14:02;101420.38;;;17.87;64.60
54248;BME280;40161;39.768;2.722;2023-05-11T07:16:27;101416.81;;;17.87;66.41
54248;BME280;40161;39.768;2.722;2023-05-11T07:18:53;101383.09;;;17.70;67.08
54248;BME280;40161;39.768;2.722;2023-05-11T07:21:18;101435.84;;;17.95;68.59
54248;BME280;40161;39.768;2.722;2023-05-11T07:23:46;101431.88;;;17.89;69.26
54248;BME280;40161;39.768;2.722;2023-05-11T07:26:12;101442.59;;;17.87;71.55
54248;BME280;40161;39.768;2.722;2023-05-11T07:28:38;101433.06;;;17.70;72.36
54248;BME280;40161;39.768;2.722;2023-05-11T07:31:04;101425.53;;;17.71;72.87
54248;BME280;40161;39.768;2.722;2023-05-11T07:33:30;101426.75;;;17.77;75.82
54248;BME280;40161;39.768;2.722;2023-05-11T07:35:56;101423.16;;;17.69;74.08
54248;BME280;40161;39.768;2.722;2023-05-11T07:38:22;101431.50;;;17.76;74.39
54248;BME280;40161;39.768;2.722;2023-05-11T07:40:47;101429.09;;;17.75;74.63
54248;BME280;40161;39.768;2.722;2023-05-11T07:43:13;101437.06;;;17.76;72.62
54248;BME280;40161;39.768;2.722;2023-05-11T07:45:38;101429.91;;;17.54;71.78
54248;BME280;40161;39.768;2.722;2023-05-11T07:48:04;101433.06;;;17.63;72.17
54248;BME280;40161;39.768;2.722;2023-05-11T07:50:30;101435.84;;;17.56;71.50
54248;BME280;40161;39.768;2.722;2023-05-11T07:52:56;101417.59;;;17.37;71.10
54248;BME280;40161;39.768;2.722;2023-05-11T07:55:22;101429.91;;;17.54;70.20
54248;BME280;40161;39.768;2.722;2023-05-11T07:57:51;101435.84;;;17.63;69.55
54248;BME280;40161;39.768;2.722;2023-05-11T08:00:18;101430.69;;;17.69;69.10
54248;BME280;40161;39.768;2.722;2023-05-11T08:02:43;101434.66;;;17.64;68.76
54248;BME280;40161;39.768;2.722;2023-05-11T08:05:09;101437.84;;;17.59;68.51
54248;BME280;40161;39.768;2.722;2023-05-11T08:07:34;101418.00;;;17.68;68.71
54248;BME280;40161;39.768;2.722;2023-05-11T08:10:00;101427.13;;;17.97;67.17
54248;BME280;40161;39.768;2.722;2023-05-11T08:12:25;101414.00;;;18.01;67.37
54248;BME280;40161;39.768;2.722;2023-05-11T08:14:51;101421.88;;;18.17;67.30
54248;BME280;40161;39.768;2.722;2023-05-11T08:17:17;101421.91;;;18.24;67.42
54248;BME280;40161;39.768;2.722;2023-05-11T08:19:42;101417.94;;;18.21;66.61
54248;BME280;40161;39.768;2.722;2023-05-11T08:22:08;101410.75;;;18.31;66.46
54248;BME280;40161;39.768;2.722;2023-05-11T08:24:33;101407.16;;;18.27;64.24
54248;BME280;40161;39.768;2.722;2023-05-11T08:26:59;101404.06;;;18.11;62.26
54248;BME280;40161;39.768;2.722;2023-05-11T08:29:24;101423.47;;;18.21;63.32
54248;BME280;40161;39.768;2.722;2023-05-11T08:31:52;101407.63;;;18.15;62.25
54248;BME280;40161;39.768;2.722;2023-05-11T08:34:18;101411.56;;;18.24;61.06
54248;BME280;40161;39.768;2.722;2023-05-11T08:36:44;101399.59;;;18.38;60.72
54248;BME280;40161;39.768;2.722;2023-05-11T08:39:09;101407.44;;;18.58;60.74
54248;BME280;40161;39.768;2.722;2023-05-11T08:41:35;101407.47;;;18.54;60.97
54248;BME280;40161;39.768;2.722;2023-05-11T08:44:01;101404.69;;;18.50;59.81
54248;BME280;40161;39.768;2.722;2023-05-11T08:46:29;101415.00;;;18.54;60.13
54248;BME280;40161;39.768;2.722;2023-05-11T08:48:55;101391.19;;;18.53;58.90
54248;BME280;40161;39.768;2.722;2023-05-11T08:51:22;101402.75;;;18.40;58.96
54248;BME280;40161;39.768;2.722;2023-05-11T08:53:48;101388.16;;;18.25;59.89
54248;BME280;40161;39.768;2.722;2023-05-11T08:56:14;101401.16;;;18.46;58.48
54248;BME280;40161;39.768;2.722;2023-05-11T08:58:41;101399.53;;;18.56;58.90
54248;BME280;40161;39.768;2.722;2023-05-11T09:01:09;101356.31;;;18.48;58.83
54248;BME280;40161;39.768;2.722;2023-05-11T09:03:38;101382.03;;;18.63;57.94
54248;BME280;40161;39.768;2.722;2023-05-11T09:06:06;101361.78;;;18.62;56.75
54248;BME280;40161;39.768;2.722;2023-05-11T09:08:33;101394.56;;;18.92;55.70
54248;BME280;40161;39.768;2.722;2023-05-11T09:11:00;101355.38;;;18.69;53.94
54248;BME280;40161;39.768;2.722;2023-05-11T09:13:28;101393.41;;;18.90;54.59
54248;BME280;40161;39.768;2.722;2023-05-11T09:15:54;101374.28;;;18.95;54.23
54248;BME280;40161;39.768;2.722;2023-05-11T09:18:19;101386.16;;;19.07;54.60
54248;BME280;40161;39.768;2.722;2023-05-11T09:20:45;101399.66;;;19.05;54.02
54248;BME280;40161;39.768;2.722;2023-05-11T09:23:17;101380.63;;;19.03;53.40
54248;BME280;40161;39.768;2.722;2023-05-11T09:25:43;101382.94;;;19.08;53.80
54248;BME280;40161;39.768;2.722;2023-05-11T09:28:12;101375.38;;;19.09;53.99
54248;BME280;40161;39.768;2.722;2023-05-11T09:30:37;101373.03;;;19.07;54.31
54248;BME280;40161;39.768;2.722;2023-05-11T09:33:03;101377.72;;;19.17;54.68
54248;BME280;40161;39.768;2.722;2023-05-11T09:35:30;101374.50;;;19.19;53.81
54248;BME280;40161;39.768;2.722;2023-05-11T09:38:11;101381.69;;;19.16;53.19
54248;BME280;40161;39.768;2.722;2023-05-11T09:40:48;101334.63;;;18.88;52.94
54248;BME280;40161;39.768;2.722;2023-05-11T09:43:23;101381.72;;;19.13;52.61
54248;BME280;40161;39.768;2.722;2023-05-11T09:45:52;101392.34;;;19.25;52.71
54248;BME280;40161;39.768;2.722;2023-05-11T09:50:44;101387.69;;;19.11;52.65
54248;BME280;40161;39.768;2.722;2023-05-11T09:53:10;101382.56;;;19.10;52.30
54248;BME280;40161;39.768;2.722;2023-05-11T09:55:36;101377.75;;;19.14;51.36
54248;BME280;40161;39.768;2.722;2023-05-11T09:58:01;101380.91;;;19.16;52.01
54248;BME280;40161;39.768;2.722;2023-05-11T10:00:29;101388.09;;;19.13;51.39
54248;BME280;40161;39.768;2.722;2023-05-11T10:03:21;101384.06;;;19.18;51.71
54248;BME280;40161;39.768;2.722;2023-05-11T10:05:57;101388.06;;;19.17;52.02
54248;BME280;40161;39.768;2.722;2023-05-11T10:08:27;101377.72;;;19.17;51.47
54248;BME280;40161;39.768;2.722;2023-05-11T10:10:54;101373.69;;;19.22;51.00
54248;BME280;40161;39.768;2.722;2023-05-11T10:13:21;101369.75;;;19.19;50.10
54248;BME280;40161;39.768;2.722;2023-05-11T10:15:50;101375.66;;;19.25;50.94
54248;BME280;40161;39.768;2.722;2023-05-11T10:18:16;101370.78;;;19.36;50.23
54248;BME280;40161;39.768;2.722;2023-05-11T10:20:43;101373.50;;;19.43;50.29
54248;BME280;40161;39.768;2.722;2023-05-11T10:23:10;101311.06;;;19.03;50.27
54248;BME280;40161;39.768;2.722;2023-05-11T10:25:36;101364.34;;;19.47;49.44
54248;BME280;40161;39.768;2.722;2023-05-11T10:28:03;101363.91;;;19.52;49.31
54248;BME280;40161;39.768;2.722;2023-05-11T10:30:30;101357.31;;;19.35;49.90
54248;BME280;40161;39.768;2.722;2023-05-11T10:32:56;101323.97;;;19.28;48.88
54248;BME280;40161;39.768;2.722;2023-05-11T10:35:23;101363.13;;;19.51;48.70
54248;BME280;40161;39.768;2.722;2023-05-11T10:37:49;101361.06;;;19.59;49.09
54248;BME280;40161;39.768;2.722;2023-05-11T10:40:15;101353.09;;;19.57;49.48
54248;BME280;40161;39.768;2.722;2023-05-11T10:45:30;101319.06;;;19.42;49.70
54248;BME280;40161;39.768;2.722;2023-05-11T10:48:31;101369.69;;;19.72;49.29
54248;BME280;40161;39.768;2.722;2023-05-11T10:51:21;101357.84;;;19.64;49.91
54248;BME280;40161;39.768;2.722;2023-05-11T10:57:05;101364.25;;;19.57;49.23
54248;BME280;40161;39.768;2.722;2023-05-11T11:00:01;101366.19;;;19.60;49.46
54248;BME280;40161;39.768;2.722;2023-05-11T11:02:35;101352.75;;;19.55;49.60
54248;BME280;40161;39.768;2.722;2023-05-11T11:05:02;101311.28;;;19.23;49.17
54248;BME280;40161;39.768;2.722;2023-05-11T11:07:57;101355.06;;;19.60;49.58
54248;BME280;40161;39.768;2.722;2023-05-11T11:10:32;101351.44;;;19.67;48.71
54248;BME280;40161;39.768;2.722;2023-05-11T11:13:09;101342.31;;;19.66;48.31
54248;BME280;40161;39.768;2.722;2023-05-11T11:18:26;101350.31;;;19.57;47.59
54248;BME280;40161;39.768;2.722;2023-05-11T11:20:53;101342.81;;;19.51;48.46
54248;BME280;40161;39.768;2.722;2023-05-11T11:23:41;101350.34;;;19.54;48.91
54248;BME280;40161;39.768;2.722;2023-05-11T11:26:09;101338.91;;;19.48;48.67
54248;BME280;40161;39.768;2.722;2023-05-11T11:31:29;101311.56;;;19.36;48.87
54248;BME280;40161;39.768;2.722;2023-05-11T11:33:57;101337.16;;;19.65;48.07
54248;BME280;40161;39.768;2.722;2023-05-11T11:42:17;101327.22;;;19.64;47.58
54248;BME280;40161;39.768;2.722;2023-05-11T11:44:44;101331.91;;;19.71;48.27
54248;BME280;40161;39.768;2.722;2023-05-11T11:47:13;101291.19;;;19.46;48.08
54248;BME280;40161;39.768;2.722;2023-05-11T11:49:40;101315.63;;;19.69;48.68
54248;BME280;40161;39.768;2.722;2023-05-11T11:52:10;101283.47;;;19.61;47.84
54248;BME280;40161;39.768;2.722;2023-05-11T11:54:42;101319.00;;;19.87;48.57
54248;BME280;40161;39.768;2.722;2023-05-11T12:00:04;101324.44;;;19.98;48.86
54248;BME280;40161;39.768;2.722;2023-05-11T12:02:34;101315.81;;;19.89;48.78
54248;BME280;40161;39.768;2.722;2023-05-11T12:07:42;101302.84;;;20.06;48.91
54248;BME280;40161;39.768;2.722;2023-05-11T12:10:08;101308.34;;;20.13;48.97
54248;BME280;40161;39.768;2.722;2023-05-11T12:12:37;101295.25;;;20.10;48.50
54248;BME280;40161;39.768;2.722;2023-05-11T12:15:06;101224.59;;;19.66;48.78
54248;BME280;40161;39.768;2.722;2023-05-11T12:17:32;101286.91;;;20.10;48.28
54248;BME280;40161;39.768;2.722;2023-05-11T12:20:16;101294.44;;;20.09;47.94
54248;BME280;40161;39.768;2.722;2023-05-11T12:22:43;101253.41;;;19.83;48.26
54248;BME280;40161;39.768;2.722;2023-05-11T12:25:11;101223.66;;;19.76;47.84
54248;BME280;40161;39.768;2.722;2023-05-11T12:27:53;101294.41;;;20.13;48.55
54248;BME280;40161;39.768;2.722;2023-05-11T12:30:28;101283.09;;;19.97;48.21
54248;BME280;40161;39.768;2.722;2023-05-11T12:32:55;101283.41;;;19.68;48.98
54248;BME280;40161;39.768;2.722;2023-05-11T12:35:22;101238.88;;;19.68;50.62
54248;BME280;40161;39.768;2.722;2023-05-11T12:37:49;101269.13;;;20.00;48.27
54248;BME280;40161;39.768;2.722;2023-05-11T12:40:15;101272.69;;;20.01;47.53
54248;BME280;40161;39.768;2.722;2023-05-11T12:42:56;101274.84;;;20.20;47.19
54248;BME280;40161;39.768;2.722;2023-05-11T12:45:23;101268.25;;;20.61;47.12
54248;BME280;40161;39.768;2.722;2023-05-11T12:47:51;101214.78;;;19.85;47.90
54248;BME280;40161;39.768;2.722;2023-05-11T12:50:18;101242.63;;;20.15;47.63
54248;BME280;40161;39.768;2.722;2023-05-11T12:52:44;101278.50;;;19.83;48.46
54248;BME280;40161;39.768;2.722;2023-05-11T12:55:10;101233.00;;;19.59;48.91
54248;BME280;40161;39.768;2.722;2023-05-11T12:57:38;101243.00;;;19.53;49.47
54248;BME280;40161;39.768;2.722;2023-05-11T13:02:34;101239.19;;;19.39;48.30
54248;BME280;40161;39.768;2.722;2023-05-11T13:05:09;101269.22;;;19.55;49.53
54248;BME280;40161;39.768;2.722;2023-05-11T13:07:35;101260.50;;;19.53;49.68
54248;BME280;40161;39.768;2.722;2023-05-11T13:10:01;101261.59;;;19.63;49.33
54248;BME280;40161;39.768;2.722;2023-05-11T13:12:27;101277.81;;;19.72;48.99
54248;BME280;40161;39.768;2.722;2023-05-11T13:15:10;101273.94;;;19.96;48.64
54248;BME280;40161;39.768;2.722;2023-05-11T13:17:40;101263.31;;;20.18;48.90
54248;BME280;40161;39.768;2.722;2023-05-11T13:22:48;101272.13;;;20.40;48.17
54248;BME280;40161;39.768;2.722;2023-05-11T13:25:17;101234.50;;;20.28;48.24
54248;BME280;40161;39.768;2.722;2023-05-11T13:27:43;101264.47;;;20.75;45.83
54248;BME280;40161;39.768;2.722;2023-05-11T13:30:09;101268.53;;;20.70;45.92
54248;BME280;40161;39.768;2.722;2023-05-11T13:32:36;101250.03;;;20.56;45.06
54248;BME280;40161;39.768;2.722;2023-05-11T13:35:05;101231.00;;;19.59;46.55